createdAt,value
2023-05-08T00:00:41.033Z,40.81
2023-05-08T00:01:41.038Z,38.15
2023-05-08T00:02:41.091Z,42.14
2023-05-08T00:03:41.204Z,37.69
2023-05-08T00:04:41.086Z,37.41
2023-05-08T00:05:41.139Z,36.20
2023-05-08T00:06:41.052Z,40.51
2023-05-08T00:07:40.961Z,36.11
2023-05-08T00:08:40.945Z,42.48
2023-05-08T00:09:40.950Z,40.41
2023-05-08T00:10:41.005Z,41.15
2023-05-08T00:11:41.008Z,40.49
2023-05-08T00:12:41.000Z,41.28
2023-05-08T00:13:40.899Z,39.31
2023-05-08T00:14:40.955Z,42.73
2023-05-08T00:15:40.954Z,38.21
2023-05-08T00:16:41.001Z,42.35
2023-05-08T00:17:41.046Z,38.46
2023-05-08T00:18:40.855Z,43.80
2023-05-08T00:19:40.911Z,38.74
2023-05-08T00:20:40.838Z,42.58
2023-05-08T00:21:40.967Z,36.89
2023-05-08T00:22:40.831Z,42.78
2023-05-08T00:23:40.835Z,44.33
2023-05-08T00:24:40.871Z,45.22
2023-05-08T00:25:40.797Z,38.34
2023-05-08T00:26:40.985Z,46.79
2023-05-08T00:27:40.777Z,42.28
2023-05-08T00:28:40.808Z,39.28
2023-05-08T00:29:40.775Z,46.01
2023-05-08T00:30:40.785Z,40.06
2023-05-08T00:31:41.580Z,36.19
2023-05-08T00:32:40.736Z,36.59
2023-05-08T00:33:40.781Z,45.37
2023-05-08T00:34:40.767Z,37.56
2023-05-08T00:35:40.684Z,46.22
2023-05-08T00:36:40.640Z,40.61
2023-05-08T00:37:40.707Z,37.94
2023-05-08T00:38:40.679Z,41.26
2023-05-08T00:39:40.607Z,41.79
2023-05-08T00:40:41.557Z,38.97
2023-05-08T00:41:40.622Z,36.55
2023-05-08T00:42:40.640Z,38.14
2023-05-08T00:43:40.659Z,46.44
2023-05-08T00:44:40.671Z,37.63
2023-05-08T00:45:40.599Z,45.11
2023-05-08T00:46:40.636Z,36.49
2023-05-08T00:47:40.614Z,46.37
2023-05-08T00:48:40.640Z,47.38
2023-05-08T00:49:41.126Z,42.86
2023-05-08T00:50:40.532Z,35.74
2023-05-08T00:51:40.569Z,38.64
2023-05-08T00:52:40.575Z,37.86
2023-05-08T00:53:40.551Z,45.73
2023-05-08T00:54:40.558Z,44.49
2023-05-08T00:55:40.479Z,49.96
2023-05-08T00:56:40.625Z,46.27
2023-05-08T00:57:40.512Z,38.50
2023-05-08T00:58:40.529Z,44.63
2023-05-08T00:59:40.466Z,35.55
2023-05-08T01:00:40.510Z,34.93
2023-05-08T01:01:40.507Z,46.61
2023-05-08T01:02:40.477Z,41.67
2023-05-08T01:03:40.583Z,35.77
2023-05-08T01:04:40.402Z,46.74
2023-05-08T01:05:40.361Z,38.98
2023-05-08T01:06:40.391Z,35.51
2023-05-08T01:07:40.373Z,41.36
2023-05-08T01:08:40.432Z,47.30
2023-05-08T01:09:40.344Z,42.78
2023-05-08T01:10:41.081Z,36.71
2023-05-08T01:11:40.425Z,44.39
2023-05-08T01:12:40.557Z,37.72
2023-05-08T01:13:40.337Z,46.73
2023-05-08T01:14:40.283Z,39.47
2023-05-08T01:15:40.367Z,38.35
2023-05-08T01:16:40.381Z,35.39
2023-05-08T01:17:40.346Z,35.06
2023-05-08T01:18:40.300Z,39.97
2023-05-08T01:19:40.424Z,47.72
2023-05-08T01:20:40.247Z,46.42
2023-05-08T01:21:40.267Z,49.72
2023-05-08T01:22:40.291Z,47.53
2023-05-08T01:23:40.195Z,41.18
2023-05-08T01:24:40.240Z,44.13
2023-05-08T01:25:40.198Z,39.28
2023-05-08T01:26:40.206Z,46.83
2023-05-08T01:27:40.123Z,45.66
2023-05-08T01:28:40.148Z,44.52
2023-05-08T01:29:40.138Z,38.19
2023-05-08T01:30:40.144Z,38.20
2023-05-08T01:31:40.245Z,37.20
2023-05-08T01:32:40.201Z,43.59
2023-05-08T01:33:40.146Z,44.13
2023-05-08T01:34:40.157Z,44.68
2023-05-08T01:35:40.201Z,44.44
2023-05-08T01:36:40.123Z,44.31
2023-05-08T01:37:40.052Z,47.24
2023-05-08T01:38:40.192Z,37.63
2023-05-08T01:39:40.057Z,37.00
2023-05-08T01:40:40.147Z,41.44
2023-05-08T01:41:40.071Z,37.76
2023-05-08T01:42:40.922Z,50.48
2023-05-08T01:43:40.112Z,44.60
2023-05-08T01:44:40.087Z,47.20
2023-05-08T01:45:40.072Z,44.99
2023-05-08T01:46:40.000Z,42.78
2023-05-08T01:47:40.072Z,38.14
2023-05-08T01:48:39.978Z,48.30
2023-05-08T01:49:40.057Z,43.96
2023-05-08T01:50:39.932Z,41.43
2023-05-08T01:51:39.944Z,46.59
2023-05-08T01:52:39.893Z,42.97
2023-05-08T01:53:39.925Z,47.05
2023-05-08T01:54:39.988Z,41.02
2023-05-08T01:55:39.897Z,45.90
2023-05-08T01:56:39.961Z,38.21
2023-05-08T01:57:39.878Z,47.53
2023-05-08T01:58:39.927Z,42.86
2023-05-08T01:59:39.892Z,48.62
2023-05-08T02:00:39.924Z,42.69
2023-05-08T02:01:39.910Z,45.66
2023-05-08T02:02:39.955Z,42.34
2023-05-08T02:03:39.946Z,40.75
2023-05-08T02:04:39.795Z,42.12
2023-05-08T02:05:39.809Z,40.49
2023-05-08T02:06:39.820Z,42.48
2023-05-08T02:07:39.808Z,37.15
2023-05-08T02:08:39.758Z,44.37
2023-05-08T02:09:39.783Z,37.49
2023-05-08T02:10:39.888Z,44.18
2023-05-08T02:11:39.774Z,51.38
2023-05-08T02:12:39.870Z,40.00
2023-05-08T02:13:39.734Z,45.02
2023-05-08T02:14:39.710Z,46.60
2023-05-08T02:15:39.760Z,43.22
2023-05-08T02:16:39.724Z,45.00
2023-05-08T02:17:40.683Z,47.95
2023-05-08T02:18:39.663Z,47.48
2023-05-08T02:19:39.708Z,46.52
2023-05-08T02:20:39.647Z,44.16
2023-05-08T02:21:39.765Z,44.15
2023-05-08T02:22:39.676Z,44.42
2023-05-08T02:23:39.639Z,48.68
2023-05-08T02:24:39.618Z,46.37
2023-05-08T02:25:39.623Z,44.56
2023-05-08T02:26:39.589Z,43.27
2023-05-08T02:27:39.596Z,47.56
2023-05-08T02:28:39.627Z,41.91
2023-05-08T02:29:39.532Z,48.35
2023-05-08T02:30:39.573Z,44.74
2023-05-08T02:31:39.605Z,44.52
2023-05-08T02:32:39.573Z,46.63
2023-05-08T02:33:39.576Z,47.83
2023-05-08T02:34:45.245Z,46.22
2023-05-08T02:35:41.665Z,46.62
2023-05-08T02:36:39.508Z,45.63
2023-05-08T02:37:39.535Z,41.28
2023-05-08T02:38:39.502Z,42.61
2023-05-08T02:39:39.510Z,50.18
2023-05-08T02:40:40.100Z,48.59
2023-05-08T02:41:39.435Z,45.69
2023-05-08T02:42:39.560Z,50.59
2023-05-08T02:43:39.418Z,44.98
2023-05-08T02:44:39.400Z,47.27
2023-05-08T02:45:39.435Z,52.33
2023-05-08T02:46:39.487Z,49.62
2023-05-08T02:47:39.420Z,50.29
2023-05-08T02:48:39.344Z,51.77
2023-05-08T02:49:39.419Z,50.37
2023-05-08T02:50:39.420Z,46.08
2023-05-08T02:51:39.384Z,51.45
2023-05-08T02:52:39.356Z,50.99
2023-05-08T02:53:39.330Z,47.94
2023-05-08T02:54:39.480Z,49.88
2023-05-08T02:55:39.298Z,49.88
2023-05-08T02:56:39.305Z,49.02
2023-05-08T02:57:39.275Z,55.73
2023-05-08T02:58:39.276Z,51.02
2023-05-08T02:59:39.320Z,51.34
2023-05-08T03:00:39.266Z,51.92
2023-05-08T03:01:39.420Z,51.21
2023-05-08T03:02:39.350Z,54.56
2023-05-08T03:03:39.497Z,50.78
2023-05-08T03:04:39.200Z,53.25
2023-05-08T03:05:39.403Z,54.06
2023-05-08T03:06:39.189Z,48.58
2023-05-08T03:07:40.294Z,54.46
2023-05-08T03:08:39.239Z,52.20
2023-05-08T03:09:39.152Z,52.53
2023-05-08T03:10:39.248Z,51.40
2023-05-08T03:11:39.132Z,50.00
2023-05-08T03:12:42.606Z,51.51
2023-05-08T03:13:39.081Z,52.23
2023-05-08T03:14:39.148Z,51.99
2023-05-08T03:15:39.114Z,53.30
2023-05-08T03:16:39.134Z,54.09
2023-05-08T03:17:40.045Z,55.27
2023-05-08T03:18:39.166Z,53.97
2023-05-08T03:19:39.106Z,53.79
2023-05-08T03:20:39.070Z,54.61
2023-05-08T03:21:39.104Z,54.29
2023-05-08T03:22:39.043Z,55.24
2023-05-08T03:23:39.008Z,54.91
2023-05-08T03:24:39.160Z,54.07
2023-05-08T03:25:38.967Z,54.11
2023-05-08T03:26:39.033Z,55.29
2023-05-08T03:27:39.012Z,53.49
2023-05-08T03:28:38.997Z,54.41
2023-05-08T03:29:38.961Z,54.59
2023-05-08T03:30:38.913Z,52.91
2023-05-08T03:31:39.064Z,57.90
2023-05-08T03:32:38.983Z,55.38
2023-05-08T03:33:39.590Z,60.02
2023-05-08T03:34:38.923Z,56.06
2023-05-08T03:35:39.049Z,55.94
2023-05-08T03:36:38.962Z,55.83
2023-05-08T03:37:38.905Z,53.61
2023-05-08T03:38:38.915Z,54.48
2023-05-08T03:39:38.886Z,56.30
2023-05-08T03:40:38.876Z,55.48
2023-05-08T03:41:38.826Z,55.68
2023-05-08T03:42:39.403Z,55.81
2023-05-08T03:43:38.815Z,54.76
2023-05-08T03:44:38.782Z,55.55
2023-05-08T03:45:38.799Z,56.11
2023-05-08T03:46:38.873Z,56.14
2023-05-08T03:47:38.802Z,54.92
2023-05-08T03:48:38.792Z,56.39
2023-05-08T03:49:38.796Z,54.84
2023-05-08T03:50:38.830Z,55.65
2023-05-08T03:51:38.715Z,53.97
2023-05-08T03:52:38.754Z,55.84
2023-05-08T03:53:38.724Z,52.14
2023-05-08T03:54:38.811Z,54.69
2023-05-08T03:55:38.706Z,53.05
2023-05-08T03:56:38.681Z,52.91
2023-05-08T03:57:38.690Z,55.20
2023-05-08T03:58:38.786Z,54.22
2023-05-08T03:59:38.690Z,54.24
2023-05-08T04:00:38.637Z,55.95
2023-05-08T04:01:38.749Z,54.03
2023-05-08T04:02:40.720Z,55.03
2023-05-08T04:03:39.366Z,54.74
2023-05-08T04:04:38.670Z,54.10
2023-05-08T04:05:38.660Z,54.62
2023-05-08T04:06:49.366Z,52.08
2023-05-08T04:07:40.622Z,54.72
2023-05-08T04:08:38.604Z,52.09
2023-05-08T04:09:38.585Z,56.15
2023-05-08T04:10:38.648Z,54.13
2023-05-08T04:11:38.529Z,53.69
2023-05-08T04:12:38.602Z,50.89
2023-05-08T04:13:38.549Z,55.10
2023-05-08T04:14:38.529Z,52.51
2023-05-08T04:15:38.653Z,55.50
2023-05-08T04:16:38.510Z,54.04
2023-05-08T04:17:38.540Z,52.74
2023-05-08T04:18:38.505Z,55.51
2023-05-08T04:19:38.486Z,56.09
2023-05-08T04:20:38.490Z,55.62
2023-05-08T04:21:38.443Z,54.12
2023-05-08T04:22:38.514Z,55.46
2023-05-08T04:23:38.412Z,54.50
2023-05-08T04:24:38.443Z,56.62
2023-05-08T04:25:38.460Z,56.37
2023-05-08T04:26:38.484Z,55.33
2023-05-08T04:27:38.406Z,56.43
2023-05-08T04:28:38.392Z,56.01
2023-05-08T04:29:38.365Z,55.57
2023-05-08T04:30:38.325Z,56.42
2023-05-08T04:31:38.408Z,56.38
2023-05-08T04:32:40.282Z,55.76
2023-05-08T04:33:39.417Z,56.62
2023-05-08T04:34:38.316Z,54.86
2023-05-08T04:35:38.360Z,55.77
2023-05-08T04:36:38.310Z,56.17
2023-05-08T04:37:38.380Z,55.69
2023-05-08T04:38:38.422Z,56.56
2023-05-08T04:39:38.279Z,57.69
2023-05-08T04:40:38.237Z,55.89
2023-05-08T04:41:38.361Z,56.20
2023-05-08T04:42:38.324Z,56.59
2023-05-08T04:43:38.294Z,56.63
2023-05-08T04:44:38.237Z,57.41
2023-05-08T04:45:38.331Z,54.58
2023-05-08T04:46:38.302Z,57.38
2023-05-08T04:47:38.925Z,56.89
2023-05-08T04:48:38.179Z,56.81
2023-05-08T04:49:38.242Z,55.46
2023-05-08T04:50:38.181Z,55.88
2023-05-08T04:51:38.122Z,55.69
2023-05-08T04:52:38.209Z,55.20
2023-05-08T04:53:38.154Z,54.50
2023-05-08T04:54:38.214Z,55.13
2023-05-08T04:55:38.121Z,55.60
2023-05-08T04:56:38.125Z,53.04
2023-05-08T04:57:38.144Z,55.67
2023-05-08T04:58:38.060Z,56.31
2023-05-08T04:59:38.156Z,56.14
2023-05-08T05:00:38.099Z,56.38
2023-05-08T05:01:38.159Z,55.02
2023-05-08T05:02:38.115Z,54.56
2023-05-08T05:03:38.155Z,55.83
2023-05-08T05:04:38.065Z,55.42
2023-05-08T05:05:38.922Z,56.06
2023-05-08T05:06:38.982Z,55.56
2023-05-08T05:07:38.039Z,57.09
2023-05-08T05:08:38.063Z,52.72
2023-05-08T05:09:38.038Z,54.74
2023-05-08T05:10:37.960Z,54.59
2023-05-08T05:11:37.929Z,56.15
2023-05-08T05:12:38.000Z,55.85
2023-05-08T05:13:37.914Z,54.15
2023-05-08T05:14:37.978Z,53.47
2023-05-08T05:15:37.953Z,54.91
2023-05-08T05:16:38.007Z,55.87
2023-05-08T05:17:37.948Z,56.02
2023-05-08T05:18:37.908Z,55.89
2023-05-08T05:19:37.884Z,55.49
2023-05-08T05:20:37.903Z,55.39
2023-05-08T05:21:37.831Z,56.34
2023-05-08T05:22:37.837Z,55.18
2023-05-08T05:23:37.834Z,53.59
2023-05-08T05:24:37.843Z,53.30
2023-05-08T05:25:37.807Z,56.81
2023-05-08T05:26:37.845Z,56.95
2023-05-08T05:27:37.825Z,55.80
2023-05-08T05:28:37.793Z,53.61
2023-05-08T05:29:37.800Z,54.01
2023-05-08T05:30:37.745Z,54.53
2023-05-08T05:31:37.810Z,53.47
2023-05-08T05:32:37.826Z,56.26
2023-05-08T05:33:37.701Z,54.89
2023-05-08T05:34:37.699Z,54.01
2023-05-08T05:35:37.698Z,54.35
2023-05-08T05:36:37.784Z,56.14
2023-05-08T05:37:37.696Z,55.98
2023-05-08T05:38:37.711Z,56.26
2023-05-08T05:39:37.642Z,55.29
2023-05-08T05:40:37.814Z,55.99
2023-05-08T05:41:37.683Z,56.01
2023-05-08T05:42:37.671Z,56.52
2023-05-08T05:43:37.608Z,54.07
2023-05-08T05:44:37.645Z,55.78
2023-05-08T05:45:37.636Z,56.14
2023-05-08T05:46:37.602Z,57.93
2023-05-08T05:47:37.671Z,55.09
2023-05-08T05:48:37.547Z,55.76
2023-05-08T05:49:37.584Z,54.05
2023-05-08T05:50:37.631Z,55.74
2023-05-08T05:51:37.577Z,55.95
2023-05-08T05:52:37.523Z,52.93
2023-05-08T05:53:37.554Z,52.95
2023-05-08T05:54:37.557Z,52.36
2023-05-08T05:55:37.537Z,53.89
2023-05-08T05:56:37.511Z,53.20
2023-05-08T05:57:37.484Z,55.84
2023-05-08T05:58:37.461Z,54.23
2023-05-08T05:59:37.496Z,54.63
2023-05-08T06:00:37.473Z,54.10
2023-05-08T06:01:37.494Z,54.16
2023-05-08T06:02:37.565Z,51.77
2023-05-08T06:03:37.510Z,53.80
2023-05-08T06:04:37.400Z,51.56
2023-05-08T06:05:37.469Z,53.36
2023-05-08T06:06:37.412Z,50.60
2023-05-08T06:07:37.360Z,54.11
2023-05-08T06:08:37.386Z,51.99
2023-05-08T06:09:37.403Z,55.04
2023-05-08T06:10:37.399Z,53.47
2023-05-08T06:11:37.348Z,51.97
2023-05-08T06:12:37.388Z,53.00
2023-05-08T06:13:37.270Z,53.19
2023-05-08T06:14:37.296Z,55.11
2023-05-08T06:15:38.078Z,58.47
2023-05-08T06:16:37.336Z,54.50
2023-05-08T06:17:37.306Z,53.82
2023-05-08T06:18:37.245Z,52.68
2023-05-08T06:19:37.237Z,52.19
2023-05-08T06:20:37.299Z,55.73
2023-05-08T06:21:37.229Z,52.15
2023-05-08T06:22:37.205Z,54.33
2023-05-08T06:23:37.232Z,51.00
2023-05-08T06:24:37.872Z,51.45
2023-05-08T06:25:37.190Z,53.65
2023-05-08T06:26:37.177Z,52.83
2023-05-08T06:27:37.154Z,52.48
2023-05-08T06:28:37.185Z,52.43
2023-05-08T06:29:37.993Z,56.62
2023-05-08T06:30:37.249Z,51.45
2023-05-08T06:31:37.179Z,51.33
2023-05-08T06:32:37.137Z,52.44
2023-05-08T06:33:37.124Z,52.58
2023-05-08T06:34:37.265Z,54.81
2023-05-08T06:35:37.064Z,55.04
2023-05-08T06:51:01.878Z,55.53
2023-05-08T06:52:01.898Z,52.74
2023-05-08T06:53:01.869Z,51.24
2023-05-08T06:54:01.848Z,55.04
2023-05-08T06:55:01.956Z,49.06
2023-05-08T06:56:03.012Z,54.45
2023-05-08T06:57:03.101Z,53.31
2023-05-08T06:58:03.017Z,50.58
2023-05-08T06:59:08.572Z,52.50
2023-05-08T07:00:03.993Z,56.30
2023-05-08T07:01:02.978Z,55.14
2023-05-08T07:02:03.091Z,52.90
2023-05-08T07:03:03.029Z,54.25
2023-05-08T07:04:02.924Z,52.38
2023-05-08T07:05:03.158Z,53.29
2023-05-08T07:06:02.903Z,52.56
2023-05-08T07:07:02.873Z,55.38
2023-05-08T07:08:02.916Z,51.21
2023-05-08T07:09:02.867Z,55.15
2023-05-08T07:10:02.906Z,56.69
2023-05-08T07:11:02.979Z,51.41
2023-05-08T07:12:02.836Z,53.28
2023-05-08T07:13:02.873Z,53.10
2023-05-08T07:14:02.931Z,52.78
2023-05-08T07:15:13.860Z,52.38
2023-05-08T07:16:04.862Z,52.79
2023-05-08T07:17:02.765Z,55.50
2023-05-08T07:18:03.570Z,53.96
2023-05-08T07:19:02.778Z,54.19
2023-05-08T07:20:03.066Z,54.32
2023-05-08T07:21:02.727Z,56.09
2023-05-08T07:22:04.769Z,54.73
2023-05-08T07:23:02.763Z,53.90
2023-05-08T07:24:02.754Z,52.87
2023-05-08T07:25:04.250Z,51.72
2023-05-08T07:26:02.854Z,53.16
2023-05-08T07:27:02.850Z,53.60
2023-05-08T07:28:02.707Z,56.52
2023-05-08T07:29:02.683Z,56.17
2023-05-08T07:30:03.721Z,56.20
2023-05-08T07:31:02.722Z,52.24
2023-05-08T07:32:03.321Z,55.44
2023-05-08T07:33:02.666Z,53.87
2023-05-08T07:34:03.512Z,57.24
2023-05-08T07:35:02.636Z,53.57
2023-05-08T07:36:02.617Z,56.26
2023-05-08T07:37:02.610Z,52.36
2023-05-08T07:38:02.918Z,51.68
2023-05-08T07:39:02.647Z,56.10
2023-05-08T07:40:02.566Z,54.37
2023-05-08T07:41:02.600Z,52.71
2023-05-08T07:42:02.564Z,53.33
2023-05-08T07:43:02.607Z,53.61
2023-05-08T07:44:02.538Z,56.92
2023-05-08T07:45:02.491Z,54.95
2023-05-08T07:46:03.153Z,55.40
2023-05-08T07:47:02.506Z,54.58
2023-05-08T07:48:02.596Z,55.96
2023-05-08T07:49:02.471Z,57.41
2023-05-08T07:50:02.559Z,53.84
2023-05-08T07:51:02.431Z,52.70
2023-05-08T07:52:02.483Z,52.71
2023-05-08T07:53:02.456Z,54.49
2023-05-08T07:54:02.412Z,56.22
2023-05-08T07:55:03.139Z,53.52
2023-05-08T07:56:02.412Z,54.52
2023-05-08T07:57:02.415Z,53.16
2023-05-08T07:58:02.384Z,53.73
2023-05-08T07:59:02.348Z,53.40
2023-05-08T08:00:02.366Z,57.90
2023-05-08T08:01:02.426Z,54.43
2023-05-08T08:02:02.445Z,55.14
2023-05-08T08:03:02.442Z,53.05
2023-05-08T08:04:02.522Z,53.37
2023-05-08T08:05:02.318Z,57.05
2023-05-08T08:06:02.346Z,56.00
2023-05-08T08:07:02.356Z,52.05
2023-05-08T08:08:02.312Z,56.46
2023-05-08T08:09:02.332Z,54.41
2023-05-08T08:10:02.339Z,53.30
2023-05-08T08:11:03.789Z,54.10
2023-05-08T08:12:02.259Z,55.80
2023-05-08T08:13:02.372Z,53.51
2023-05-08T08:14:02.229Z,56.51
2023-05-08T08:15:02.255Z,51.04
2023-05-08T08:16:02.334Z,51.32
2023-05-08T08:17:02.375Z,52.84
2023-05-08T08:18:02.314Z,54.29
2023-05-08T08:19:02.218Z,53.76
2023-05-08T08:20:02.250Z,51.93
2023-05-08T08:21:02.202Z,53.26
2023-05-08T08:22:02.216Z,52.36
2023-05-08T08:23:02.184Z,54.46
2023-05-08T08:24:02.185Z,55.21
2023-05-08T08:25:02.237Z,55.89
2023-05-08T08:26:02.177Z,51.95
2023-05-08T08:27:03.006Z,55.13
2023-05-08T08:28:02.160Z,55.34
2023-05-08T08:29:02.088Z,53.73
2023-05-08T08:30:15.888Z,52.70
2023-05-08T08:31:04.081Z,56.40
2023-05-08T08:32:02.095Z,56.87
2023-05-08T08:33:02.128Z,55.25
2023-05-08T08:34:02.092Z,58.67
2023-05-08T08:35:02.053Z,56.49
2023-05-08T08:36:02.030Z,54.40
2023-05-08T08:37:02.022Z,55.05
2023-05-08T08:38:01.976Z,56.74
2023-05-08T08:39:03.179Z,50.63
2023-05-08T08:40:02.030Z,57.20
2023-05-08T08:41:01.958Z,55.94
2023-05-08T08:42:02.003Z,58.17
2023-05-08T08:43:01.950Z,56.32
2023-05-08T08:44:01.933Z,54.88
2023-05-08T08:45:01.921Z,56.34
2023-05-08T08:46:01.989Z,54.97
2023-05-08T08:47:01.900Z,55.26
2023-05-08T08:48:01.979Z,52.50
2023-05-08T08:49:01.876Z,51.40
2023-05-08T08:50:02.651Z,53.05
2023-05-08T08:51:01.872Z,56.03
2023-05-08T08:52:01.824Z,53.04
2023-05-08T08:53:01.931Z,55.57
2023-05-08T08:54:01.834Z,54.24
2023-05-08T08:55:01.828Z,54.45
2023-05-08T08:56:01.824Z,55.21
2023-05-08T08:57:01.899Z,51.87
2023-05-08T08:58:01.885Z,51.29
2023-05-08T08:59:01.733Z,52.79
2023-05-08T09:00:01.748Z,71.00
2023-05-08T09:01:01.755Z,54.29
2023-05-08T09:02:01.861Z,54.25
2023-05-08T09:03:01.970Z,54.17
2023-05-08T09:04:01.848Z,53.85
2023-05-08T09:05:01.732Z,55.45
2023-05-08T09:06:01.755Z,55.78
2023-05-08T09:07:01.729Z,54.83
2023-05-08T09:08:01.711Z,50.65
2023-05-08T09:09:01.700Z,54.81
2023-05-08T09:10:01.670Z,55.26
2023-05-08T09:11:02.419Z,55.06
2023-05-08T09:12:01.714Z,53.86
2023-05-08T09:13:01.738Z,54.72
2023-05-08T09:14:01.672Z,52.62
2023-05-08T09:15:01.614Z,55.92
2023-05-08T09:16:02.309Z,55.15
2023-05-08T09:17:01.571Z,53.30
2023-05-08T09:18:01.793Z,61.20
2023-05-08T09:19:01.996Z,57.21
2023-05-08T09:20:03.002Z,55.60
2023-05-08T09:21:01.631Z,49.80
2023-05-08T09:22:01.589Z,52.47
2023-05-08T09:23:01.594Z,53.55
2023-05-08T09:24:01.532Z,54.12
2023-05-08T09:25:01.802Z,51.60
2023-05-08T09:26:01.538Z,51.74
2023-05-08T09:27:01.532Z,50.87
2023-05-08T09:28:01.562Z,53.50
2023-05-08T09:29:01.500Z,53.80
2023-05-08T09:30:01.597Z,52.39
2023-05-08T09:31:01.477Z,54.42
2023-05-08T09:32:02.267Z,49.54
2023-05-08T09:33:01.584Z,50.38
2023-05-08T09:34:01.540Z,51.63
2023-05-08T09:35:01.541Z,51.73
2023-05-08T09:36:01.419Z,52.85
2023-05-08T09:37:01.402Z,52.45
2023-05-08T09:38:01.409Z,51.42
2023-05-08T09:39:01.451Z,49.61
2023-05-08T09:40:01.411Z,51.68
2023-05-08T09:41:01.391Z,53.24
2023-05-08T09:42:01.329Z,53.46
2023-05-08T09:43:01.372Z,53.88
2023-05-08T09:44:01.405Z,52.89
2023-05-08T09:45:01.321Z,51.56
2023-05-08T09:46:02.396Z,53.43
2023-05-08T09:47:01.302Z,51.91
2023-05-08T09:48:01.445Z,52.13
2023-05-08T09:49:01.326Z,49.26
2023-05-08T09:50:01.254Z,52.00
2023-05-08T09:51:01.290Z,51.52
2023-05-08T09:52:01.275Z,54.72
2023-05-08T09:53:02.152Z,52.17
2023-05-08T09:54:01.242Z,49.36
2023-05-08T09:55:01.266Z,52.57
2023-05-08T09:56:01.253Z,47.83
2023-05-08T09:57:01.195Z,49.42
2023-05-08T09:58:01.205Z,50.95
2023-05-08T09:59:01.186Z,49.62
2023-05-08T10:00:01.186Z,52.19
2023-05-08T10:01:01.170Z,53.08
2023-05-08T10:02:01.250Z,46.81
2023-05-08T10:03:01.253Z,53.24
2023-05-08T10:04:01.289Z,50.80
2023-05-08T10:05:01.193Z,51.30
2023-05-08T10:06:01.134Z,51.96
2023-05-08T10:07:01.200Z,51.23
2023-05-08T10:08:01.154Z,50.91
2023-05-08T10:09:01.066Z,52.72
2023-05-08T10:10:01.147Z,51.28
2023-05-08T10:11:02.030Z,51.21
2023-05-08T10:12:01.063Z,48.64
2023-05-08T10:13:01.060Z,52.73
2023-05-08T10:14:01.053Z,50.86
2023-05-08T10:15:01.053Z,51.15
2023-05-08T10:16:01.119Z,51.33
2023-05-08T10:17:01.063Z,51.61
2023-05-08T10:18:01.226Z,50.90
2023-05-08T10:19:01.024Z,55.23
2023-05-08T10:20:00.976Z,65.70
2023-05-08T10:21:01.009Z,52.38
2023-05-08T10:22:00.998Z,54.13
2023-05-08T10:23:01.047Z,56.83
2023-05-08T10:24:00.928Z,53.46
2023-05-08T10:25:00.944Z,53.30
2023-05-08T10:26:00.902Z,52.46
2023-05-08T10:27:06.249Z,55.42
2023-05-08T10:28:02.972Z,51.86
2023-05-08T10:29:00.923Z,50.60
2023-05-08T10:30:00.928Z,50.20
2023-05-08T10:31:01.022Z,50.85
2023-05-08T10:32:00.868Z,51.19
2023-05-08T10:33:00.926Z,53.57
2023-05-08T10:34:00.903Z,52.36
2023-05-08T10:35:00.858Z,53.08
2023-05-08T10:36:00.850Z,53.33
2023-05-08T10:37:00.826Z,51.62
2023-05-08T10:38:00.823Z,49.21
2023-05-08T10:39:00.871Z,49.67
2023-05-08T10:40:00.783Z,52.62
2023-05-08T10:41:00.800Z,50.93
2023-05-08T10:42:00.744Z,56.45
2023-05-08T10:43:00.750Z,69.07
2023-05-08T10:44:03.140Z,64.12
2023-05-08T10:45:01.771Z,60.87
2023-05-08T10:46:00.775Z,61.85
2023-05-08T10:47:00.735Z,61.66
2023-05-08T10:48:00.741Z,55.78
2023-05-08T10:49:00.736Z,52.40
2023-05-08T10:50:00.703Z,53.21
2023-05-08T10:51:01.186Z,51.26
2023-05-08T10:52:00.678Z,50.98
2023-05-08T10:53:00.635Z,51.74
2023-05-08T10:54:00.672Z,53.21
2023-05-08T10:55:00.621Z,50.43
2023-05-08T10:56:00.606Z,53.31
2023-05-08T10:57:00.630Z,54.08
2023-05-08T10:58:00.630Z,51.06
2023-05-08T10:59:00.564Z,51.95
2023-05-08T11:00:00.629Z,54.69
2023-05-08T11:01:00.554Z,53.95
2023-05-08T11:02:00.670Z,53.87
2023-05-08T11:03:00.708Z,54.36
2023-05-08T11:04:00.707Z,55.46
2023-05-08T11:05:00.532Z,53.44
2023-05-08T11:06:00.511Z,55.22
2023-05-08T11:07:01.171Z,53.18
2023-05-08T11:08:00.532Z,51.48
2023-05-08T11:09:00.959Z,55.02
2023-05-08T11:10:01.512Z,55.51
2023-05-08T11:11:00.487Z,53.07
2023-05-08T11:12:00.500Z,54.01
2023-05-08T11:13:00.578Z,52.87
2023-05-08T11:14:00.448Z,51.85
2023-05-08T11:15:00.430Z,54.33
2023-05-08T11:16:00.509Z,52.35
2023-05-08T11:17:00.454Z,55.58
2023-05-08T11:18:03.118Z,57.00
2023-05-08T11:19:00.380Z,50.80
2023-05-08T11:20:00.433Z,51.98
2023-05-08T11:21:00.442Z,54.94
2023-05-08T11:22:00.410Z,56.35
2023-05-08T11:23:00.352Z,52.91
2023-05-08T11:24:00.387Z,55.48
2023-05-08T11:25:00.382Z,53.47
2023-05-08T11:26:00.381Z,53.18
2023-05-08T11:27:00.290Z,55.50
2023-05-08T11:28:00.297Z,52.58
2023-05-08T11:29:00.304Z,52.68
2023-05-08T11:30:00.273Z,55.57
2023-05-08T11:31:00.304Z,53.53
2023-05-08T11:32:01.179Z,57.31
2023-05-08T11:33:00.270Z,52.89
2023-05-08T11:34:00.226Z,52.43
2023-05-08T11:35:00.213Z,54.81
2023-05-08T11:36:00.251Z,57.17
2023-05-08T11:37:00.314Z,51.98
2023-05-08T11:38:00.200Z,51.90
2023-05-08T11:39:00.202Z,52.95
2023-05-08T11:40:00.208Z,54.49
2023-05-08T11:41:00.205Z,55.53
2023-05-08T11:42:00.190Z,55.06
2023-05-08T11:43:00.155Z,54.16
2023-05-08T11:44:00.139Z,50.82
2023-05-08T11:45:00.163Z,51.51
2023-05-08T11:46:00.149Z,50.52
2023-05-08T11:47:00.132Z,52.35
2023-05-08T11:48:00.116Z,47.48
2023-05-08T11:49:00.127Z,53.19
2023-05-08T11:50:00.193Z,52.99
2023-05-08T11:51:00.269Z,53.46
2023-05-08T11:52:00.186Z,53.94
2023-05-08T11:53:00.086Z,53.55
2023-05-08T11:54:00.013Z,54.70
2023-05-08T11:55:00.045Z,54.31
2023-05-08T11:56:00.082Z,51.07
2023-05-08T11:57:00.007Z,50.16
2023-05-08T11:58:00.084Z,52.16
2023-05-08T11:58:59.985Z,52.77
2023-05-08T11:59:59.950Z,50.77
2023-05-08T12:01:00.005Z,53.86
2023-05-08T12:02:08.447Z,53.60
2023-05-08T12:03:02.135Z,55.34
2023-05-08T12:04:00.124Z,50.37
2023-05-08T12:05:00.014Z,51.78
2023-05-08T12:05:59.939Z,50.35
2023-05-08T12:06:59.903Z,54.48
2023-05-08T12:07:59.894Z,52.52
2023-05-08T12:08:59.979Z,53.35
2023-05-08T12:10:06.044Z,59.56
2023-05-08T12:10:59.886Z,59.17
2023-05-08T12:11:59.899Z,50.44
2023-05-08T12:12:59.862Z,54.24
2023-05-08T12:13:59.891Z,56.43
2023-05-08T12:15:00.962Z,53.88
2023-05-08T12:15:59.955Z,56.14
2023-05-08T12:16:59.828Z,52.67
2023-05-08T12:17:59.898Z,50.64
2023-05-08T12:18:59.827Z,53.55
2023-05-08T12:19:59.729Z,53.63
2023-05-08T12:20:59.841Z,54.67
2023-05-08T12:21:59.769Z,54.68
2023-05-08T12:22:59.743Z,56.07
2023-05-08T12:23:59.764Z,53.92
2023-05-08T12:24:59.769Z,54.56
2023-05-08T12:25:59.843Z,52.66
2023-05-08T12:26:59.725Z,53.77
2023-05-08T12:27:59.759Z,55.84
2023-05-08T12:28:59.734Z,56.58
2023-05-08T12:29:59.687Z,56.10
2023-05-08T12:30:59.738Z,55.04
2023-05-08T12:31:59.678Z,54.49
2023-05-08T12:32:59.735Z,54.39
2023-05-08T12:33:59.722Z,57.10
2023-05-08T12:35:00.186Z,56.13
2023-05-08T12:35:59.804Z,54.13
2023-05-08T12:36:59.763Z,54.53
2023-05-08T12:37:59.655Z,55.90
2023-05-08T12:38:59.602Z,55.85
2023-05-08T12:39:59.592Z,55.55
2023-05-08T12:40:59.554Z,53.10
2023-05-08T12:42:01.125Z,55.89
2023-05-08T12:43:00.553Z,56.33
2023-05-08T12:44:00.008Z,54.08
2023-05-08T12:44:59.554Z,56.39
2023-05-08T12:45:59.625Z,56.15
2023-05-08T12:46:59.681Z,55.74
2023-05-08T12:47:59.527Z,52.36
2023-05-08T12:48:59.532Z,54.55
2023-05-08T12:49:59.501Z,53.13
2023-05-08T12:50:59.541Z,54.64
2023-05-08T12:51:59.518Z,55.04
2023-05-08T12:52:59.485Z,55.82
2023-05-08T12:53:59.435Z,55.74
2023-05-08T12:54:59.471Z,54.25
2023-05-08T12:55:59.410Z,53.49
2023-05-08T12:56:59.435Z,52.34
2023-05-08T12:57:59.526Z,51.32
2023-05-08T12:58:59.380Z,53.63
2023-05-08T13:00:33.132Z,53.11
2023-05-08T13:00:59.469Z,55.76
2023-05-08T13:01:59.445Z,54.57
2023-05-08T13:02:59.556Z,51.62
2023-05-08T13:04:02.607Z,49.32
2023-05-08T13:05:00.369Z,53.96
2023-05-08T13:05:59.296Z,50.82
2023-05-08T13:06:59.404Z,52.62